Terminal Aerodrome Forecast
Issued by NWS Medford, OR

Home | Current Version | Previous Version | Text Only | Print | Product List | Glossary On
Versions: 1 2 3 4 5 6 7 8 9 10 11 12 13
000
FTUS46 KMFR 161100
TAFMFR
TAF
KMFR 161120Z 1612/1712 VRB03KT P6SM SKC
     FM162300 32008KT P6SM SCT100 BKN250
     FM170300 VRB03KT P6SM BKN100 BKN250=

USA.gov is the U.S. government's official web portal to all federal, state and local government web resources and services.